createdAt,value
2019-03-24T00:01:24.636Z,29.10
2019-03-24T00:03:55.876Z,27.13
2019-03-24T00:06:27.122Z,29.33
2019-03-24T00:08:58.411Z,27.23
2019-03-24T00:11:29.706Z,26.27
2019-03-24T00:14:00.932Z,25.90
2019-03-24T00:16:32.190Z,26.37
2019-03-24T00:19:03.488Z,27.67
2019-03-24T00:21:34.712Z,24.97
2019-03-24T00:24:05.952Z,27.23
2019-03-24T00:26:37.247Z,27.17
2019-03-24T00:29:08.512Z,25.60
2019-03-24T00:31:39.748Z,29.53
2019-03-24T00:34:10.993Z,28.30
2019-03-24T00:36:42.294Z,27.17
2019-03-24T00:39:13.515Z,25.73
2019-03-24T00:41:44.761Z,25.83
2019-03-24T00:44:15.982Z,29.93
2019-03-24T00:46:47.187Z,27.70
2019-03-24T00:49:18.413Z,29.13
2019-03-24T00:51:49.562Z,33.93
2019-03-24T00:54:20.873Z,26.47
2019-03-24T00:56:52.793Z,25.60
2019-03-24T00:59:24.050Z,29.37
2019-03-24T01:01:55.361Z,27.93
2019-03-24T01:04:26.514Z,30.10
2019-03-24T01:06:57.682Z,28.53
2019-03-24T01:09:29.148Z,26.33
2019-03-24T01:12:00.476Z,26.87
2019-03-24T01:14:31.733Z,32.47
2019-03-24T01:17:02.960Z,26.80
2019-03-24T01:19:34.128Z,27.63
2019-03-24T01:22:05.305Z,25.57
2019-03-24T01:24:36.575Z,25.70
2019-03-24T01:27:07.840Z,25.60
2019-03-24T01:29:38.915Z,30.03
2019-03-24T01:32:10.150Z,26.93
2019-03-24T01:34:41.370Z,29.60
2019-03-24T01:37:12.647Z,29.30
2019-03-24T01:39:43.840Z,26.53
2019-03-24T01:42:15.111Z,27.30
2019-03-24T01:44:46.310Z,29.37
2019-03-24T01:47:17.525Z,33.33
2019-03-24T01:49:48.819Z,30.03
2019-03-24T01:52:20.011Z,30.67
2019-03-24T01:54:51.270Z,27.50
2019-03-24T01:57:22.550Z,28.33
2019-03-24T01:59:53.914Z,28.57
2019-03-24T02:02:25.142Z,29.47
2019-03-24T02:04:56.420Z,29.77
2019-03-24T02:07:27.611Z,32.07
2019-03-24T02:09:58.882Z,30.57
2019-03-24T02:12:30.134Z,30.97
2019-03-24T02:15:01.435Z,31.57
2019-03-24T02:17:32.764Z,30.37
2019-03-24T02:20:04.005Z,28.67
2019-03-24T02:22:35.279Z,28.30
2019-03-24T02:25:06.606Z,28.90
2019-03-24T02:27:37.841Z,29.13
2019-03-24T02:30:09.791Z,31.80
2019-03-24T02:32:40.937Z,30.10
2019-03-24T02:35:12.154Z,30.50
2019-03-24T02:37:43.379Z,31.13
2019-03-24T02:40:14.596Z,29.53
2019-03-24T02:42:45.795Z,28.33
2019-03-24T02:45:17.530Z,30.80
2019-03-24T02:47:48.737Z,30.70
2019-03-24T02:50:20.052Z,34.53
2019-03-24T02:52:51.303Z,32.83
2019-03-24T02:55:22.581Z,33.47
2019-03-24T02:57:53.677Z,28.90
2019-03-24T03:00:24.803Z,30.00
2019-03-24T03:02:56.064Z,31.83
2019-03-24T03:05:27.348Z,29.00
2019-03-24T03:07:58.557Z,33.93
2019-03-24T03:10:29.782Z,27.23
2019-03-24T03:13:00.959Z,35.67
2019-03-24T03:15:32.241Z,33.30
2019-03-24T03:18:03.482Z,28.27
2019-03-24T03:20:34.653Z,30.57
2019-03-24T03:23:05.872Z,32.60
2019-03-24T03:25:37.063Z,33.07
2019-03-24T03:28:08.320Z,29.97
2019-03-24T03:30:39.602Z,35.40
2019-03-24T03:33:10.810Z,31.03
2019-03-24T03:35:41.996Z,30.27
2019-03-24T03:38:13.694Z,30.87
2019-03-24T03:40:45.027Z,35.00
2019-03-24T03:43:16.381Z,31.30
2019-03-24T03:45:47.659Z,29.00
2019-03-24T03:48:18.899Z,32.93
2019-03-24T03:50:50.091Z,31.23
2019-03-24T03:53:21.349Z,37.63
2019-03-24T03:55:52.581Z,31.33
2019-03-24T03:58:23.882Z,33.37
2019-03-24T04:00:55.157Z,33.33
2019-03-24T04:03:26.468Z,34.13
2019-03-24T04:05:57.729Z,32.40
2019-03-24T04:08:28.918Z,31.57
2019-03-24T04:11:00.206Z,34.77
2019-03-24T04:13:31.509Z,31.70
2019-03-24T04:16:02.721Z,33.57
2019-03-24T04:18:33.865Z,34.40
2019-03-24T04:21:24.015Z,33.13
2019-03-24T04:23:55.251Z,34.77
2019-03-24T04:26:26.515Z,30.70
2019-03-24T04:28:57.624Z,32.30
2019-03-24T04:31:28.868Z,31.27
2019-03-24T04:34:00.062Z,28.53
2019-03-24T04:36:31.317Z,29.63
2019-03-24T04:39:02.557Z,34.20
2019-03-24T04:41:33.857Z,30.93
2019-03-24T04:44:05.114Z,32.83
2019-03-24T04:46:36.365Z,35.27
2019-03-24T04:49:07.493Z,35.47
2019-03-24T04:51:38.719Z,32.53
2019-03-24T04:54:09.877Z,34.50
2019-03-24T04:56:41.164Z,34.70
2019-03-24T04:59:12.475Z,35.90
2019-03-24T05:01:43.764Z,35.13
2019-03-24T05:04:15.013Z,34.97
2019-03-24T05:06:46.267Z,38.50
2019-03-24T05:09:18.105Z,34.97
2019-03-24T05:11:49.267Z,38.67
2019-03-24T05:14:20.456Z,34.67
2019-03-24T05:16:51.811Z,32.83
2019-03-24T05:19:23.020Z,38.20
2019-03-24T05:21:54.242Z,34.57
2019-03-24T05:24:25.491Z,34.33
2019-03-24T05:26:56.818Z,34.13
2019-03-24T05:29:28.062Z,31.50
2019-03-24T05:31:59.158Z,35.87
2019-03-24T05:34:30.406Z,33.50
2019-03-24T05:37:01.694Z,34.13
2019-03-24T05:39:32.894Z,34.40
2019-03-24T05:42:04.190Z,34.63
2019-03-24T05:44:35.332Z,33.27
2019-03-24T05:47:06.617Z,36.60
2019-03-24T05:49:37.871Z,31.30
2019-03-24T05:52:09.104Z,34.90
2019-03-24T05:54:40.343Z,34.03
2019-03-24T05:57:11.699Z,33.03
2019-03-24T05:59:42.952Z,34.40
2019-03-24T06:02:14.225Z,33.47
2019-03-24T06:04:45.478Z,34.60
2019-03-24T06:07:16.630Z,36.67
2019-03-24T06:09:47.954Z,32.83
2019-03-24T06:12:19.226Z,38.77
2019-03-24T06:14:50.596Z,35.07
2019-03-24T06:17:21.884Z,38.60
2019-03-24T06:19:53.090Z,36.83
2019-03-24T06:22:24.338Z,39.40
2019-03-24T06:24:55.686Z,38.47
2019-03-24T06:27:26.991Z,39.50
2019-03-24T06:29:58.246Z,38.10
2019-03-24T06:32:29.543Z,36.40
2019-03-24T06:35:00.810Z,39.97
2019-03-24T06:37:32.050Z,32.57
2019-03-24T06:40:03.355Z,35.13
2019-03-24T06:42:34.569Z,36.07
2019-03-24T06:45:05.982Z,33.23
2019-03-24T06:47:37.286Z,30.10
2019-03-24T06:50:09.600Z,38.33
2019-03-24T06:52:41.053Z,38.57
2019-03-24T06:55:12.520Z,39.00
2019-03-24T06:57:43.729Z,35.50
2019-03-24T07:00:15.104Z,36.20
2019-03-24T07:02:46.268Z,36.57
2019-03-24T07:05:17.687Z,35.17
2019-03-24T07:07:48.863Z,37.93
2019-03-24T07:10:20.134Z,38.07
2019-03-24T07:12:51.545Z,38.43
2019-03-24T07:15:22.898Z,36.37
2019-03-24T07:17:54.111Z,39.70
2019-03-24T07:20:25.356Z,40.90
2019-03-24T07:22:56.611Z,40.43
2019-03-24T07:25:27.829Z,43.27
2019-03-24T07:27:59.085Z,42.00
2019-03-24T07:30:30.402Z,35.30
2019-03-24T07:33:01.608Z,46.10
2019-03-24T07:35:32.876Z,40.93
2019-03-24T07:38:04.147Z,37.80
2019-03-24T07:40:35.463Z,34.93
2019-03-24T07:43:06.765Z,36.60
2019-03-24T07:45:38.135Z,36.37
2019-03-24T07:48:18.764Z,41.97
2019-03-24T07:50:42.329Z,45.43
2019-03-24T07:53:13.572Z,41.40
2019-03-24T07:55:44.752Z,41.47
2019-03-24T07:58:15.997Z,34.97
2019-03-24T08:00:47.249Z,40.23
2019-03-24T08:03:18.452Z,41.57
2019-03-24T08:05:49.697Z,39.80
2019-03-24T08:08:20.989Z,41.23
2019-03-24T08:10:52.198Z,37.87
2019-03-24T08:13:24.871Z,40.50
2019-03-24T08:15:56.021Z,38.07
2019-03-24T08:18:30.124Z,47.87
2019-03-24T08:21:00.132Z,52.13
2019-03-24T08:23:31.308Z,96.33
2019-03-24T08:26:02.579Z,41.33
2019-03-24T08:28:33.883Z,37.10
2019-03-24T08:31:05.076Z,37.33
2019-03-24T08:33:36.352Z,35.30
2019-03-24T08:36:09.626Z,34.57
2019-03-24T08:38:40.869Z,32.83
2019-03-24T08:41:12.014Z,40.90
2019-03-24T08:43:43.279Z,44.80
2019-03-24T08:46:14.552Z,34.63
2019-03-24T08:48:45.802Z,37.80
2019-03-24T08:51:17.004Z,38.50
2019-03-24T08:53:48.324Z,38.67
2019-03-24T08:56:19.519Z,39.77
2019-03-24T08:58:50.754Z,38.37
2019-03-24T09:01:21.948Z,37.93
2019-03-24T09:03:53.074Z,37.17
2019-03-24T09:06:24.367Z,38.37
2019-03-24T09:08:55.662Z,40.93
2019-03-24T09:11:31.121Z,42.43
2019-03-24T09:13:59.903Z,39.27
2019-03-24T09:16:31.156Z,39.43
2019-03-24T09:19:02.377Z,37.73
2019-03-24T09:21:33.629Z,37.30
2019-03-24T09:24:04.977Z,38.70
2019-03-24T09:26:36.783Z,39.33
2019-03-24T09:29:08.116Z,36.73
2019-03-24T09:31:39.343Z,39.40
2019-03-24T09:34:10.559Z,40.17
2019-03-24T09:36:41.864Z,41.93
2019-03-24T09:39:13.161Z,39.30
2019-03-24T09:41:44.474Z,39.37
2019-03-24T09:44:15.547Z,39.03
2019-03-24T09:46:46.725Z,38.70
2019-03-24T09:49:17.937Z,40.27
2019-03-24T09:51:47.814Z,39.73
2019-03-24T09:54:19.101Z,40.90
2019-03-24T09:56:50.331Z,38.00
2019-03-24T09:59:21.486Z,38.63
2019-03-24T10:01:52.712Z,40.67
2019-03-24T10:04:23.943Z,34.00
2019-03-24T10:06:55.189Z,82.23
2019-03-24T10:09:26.400Z,40.20
2019-03-24T10:11:57.579Z,40.30
2019-03-24T10:14:28.842Z,44.77
2019-03-24T10:17:00.046Z,41.77
2019-03-24T10:19:31.227Z,37.42
2019-03-24T10:22:02.448Z,36.90
2019-03-24T10:24:33.706Z,39.67
2019-03-24T10:27:05.030Z,41.10
2019-03-24T10:29:36.374Z,37.27
2019-03-24T10:32:07.620Z,38.50
2019-03-24T10:34:38.889Z,35.60
2019-03-24T10:37:10.190Z,35.75
2019-03-24T10:39:41.413Z,38.60
2019-03-24T10:42:12.679Z,39.03
2019-03-24T10:44:43.925Z,33.95
2019-03-24T10:47:15.208Z,38.95
2019-03-24T10:49:46.560Z,36.70
2019-03-24T10:52:19.825Z,40.15
2019-03-24T10:54:50.773Z,38.33
2019-03-24T10:57:22.130Z,37.13
2019-03-24T10:59:53.323Z,38.48
2019-03-24T11:02:24.594Z,40.88
2019-03-24T11:04:55.910Z,41.45
2019-03-24T11:07:27.139Z,41.50
2019-03-24T11:09:58.448Z,44.90
2019-03-24T11:12:29.759Z,41.20
2019-03-24T11:15:01.053Z,41.27
2019-03-24T11:17:32.346Z,41.95
2019-03-24T11:20:03.734Z,43.30
2019-03-24T11:22:34.966Z,42.07
2019-03-24T11:25:08.535Z,40.88
2019-03-24T11:27:40.180Z,45.23
2019-03-24T11:30:13.741Z,42.50
2019-03-24T11:32:45.023Z,43.58
2019-03-24T11:35:16.283Z,44.85
2019-03-24T11:37:47.545Z,41.37
2019-03-24T11:40:18.909Z,41.48
2019-03-24T11:42:50.396Z,42.45
2019-03-24T11:45:21.629Z,40.23
2019-03-24T11:47:52.848Z,42.35
2019-03-24T11:50:24.196Z,42.33
2019-03-24T11:52:55.485Z,42.55
2019-03-24T11:55:26.790Z,48.92
2019-03-24T11:58:05.593Z,41.73
2019-03-24T12:00:40.022Z,43.33
2019-03-24T12:03:11.261Z,39.53
2019-03-24T12:05:42.573Z,39.53
2019-03-24T12:08:13.974Z,43.27
2019-03-24T12:10:45.671Z,46.17
2019-03-24T12:13:16.844Z,43.90
2019-03-24T12:15:48.075Z,43.45
2019-03-24T12:18:19.464Z,43.05
2019-03-24T12:20:50.750Z,46.73
2019-03-24T12:23:22.035Z,44.80
2019-03-24T12:25:53.344Z,39.50
2019-03-24T12:28:24.688Z,41.87
2019-03-24T12:30:55.934Z,34.43
2019-03-24T12:33:27.148Z,36.27
2019-03-24T12:35:58.442Z,37.23
2019-03-24T12:38:29.665Z,37.75
2019-03-24T12:41:00.955Z,32.57
2019-03-24T12:43:32.246Z,36.13
2019-03-24T12:46:03.609Z,35.70
2019-03-24T12:48:34.865Z,36.75
2019-03-24T12:51:06.148Z,39.18
2019-03-24T12:53:37.389Z,36.85
2019-03-24T12:56:08.761Z,37.15
2019-03-24T12:58:40.133Z,38.33
2019-03-24T13:01:12.534Z,36.93
2019-03-24T13:03:43.805Z,40.45
2019-03-24T13:06:15.084Z,35.78
2019-03-24T13:08:46.474Z,33.38
2019-03-24T13:11:18.000Z,36.15
2019-03-24T13:13:49.329Z,40.83
2019-03-24T13:16:20.794Z,35.08
2019-03-24T13:18:52.341Z,37.75
2019-03-24T13:21:25.997Z,36.45
2019-03-24T13:23:57.456Z,37.03
2019-03-24T13:26:28.835Z,32.05
2019-03-24T13:29:00.160Z,35.05
2019-03-24T13:31:33.226Z,35.95
2019-03-24T13:34:04.489Z,38.80
2019-03-24T13:36:38.859Z,38.27
2019-03-24T13:39:10.096Z,39.93
2019-03-24T13:41:41.363Z,42.67
2019-03-24T13:44:17.807Z,37.77
2019-03-24T13:46:49.167Z,36.03
2019-03-24T13:49:22.770Z,40.37
2019-03-24T13:51:54.132Z,40.87
2019-03-24T13:54:25.433Z,45.53
2019-03-24T13:56:56.801Z,52.40
2019-03-24T13:59:28.057Z,40.43
2019-03-24T14:01:59.356Z,37.77
2019-03-24T14:04:30.629Z,43.23
2019-03-24T14:07:02.247Z,40.73
2019-03-24T14:09:33.348Z,41.17
2019-03-24T14:12:04.616Z,41.67
2019-03-24T14:14:35.900Z,39.03
2019-03-24T14:17:07.203Z,42.57
2019-03-24T14:19:38.527Z,49.70
2019-03-24T14:22:09.798Z,45.40
2019-03-24T14:24:41.180Z,57.37
2019-03-24T14:27:12.481Z,44.73
2019-03-24T14:29:43.768Z,47.13
2019-03-24T14:32:15.035Z,42.63
2019-03-24T14:34:46.397Z,41.27
2019-03-24T14:37:17.710Z,38.87
2019-03-24T14:39:49.161Z,46.60
2019-03-24T14:42:20.448Z,41.27
2019-03-24T14:44:51.757Z,37.47
2019-03-24T14:47:22.964Z,42.87
2019-03-24T14:49:54.208Z,36.10
2019-03-24T14:52:25.521Z,38.43
2019-03-24T14:54:56.847Z,38.30
2019-03-24T14:57:28.090Z,37.40
2019-03-24T14:59:59.358Z,33.60
2019-03-24T15:02:30.640Z,39.83
2019-03-24T15:05:01.945Z,89.33
2019-03-24T15:07:33.215Z,52.03
2019-03-24T15:10:04.845Z,46.43
2019-03-24T15:12:36.146Z,40.27
2019-03-24T15:15:07.637Z,38.50
2019-03-24T15:17:38.867Z,40.43
2019-03-24T15:20:10.087Z,40.80
2019-03-24T15:22:41.377Z,39.27
2019-03-24T15:25:12.603Z,42.03
2019-03-24T15:27:43.870Z,41.50
2019-03-24T15:30:15.880Z,38.17
2019-03-24T15:32:47.104Z,46.10
2019-03-24T15:35:18.398Z,59.77
2019-03-24T15:37:49.641Z,68.20
2019-03-24T15:40:20.915Z,39.40
2019-03-24T15:42:52.239Z,39.10
2019-03-24T15:45:23.492Z,40.63
2019-03-24T15:47:54.749Z,38.67
2019-03-24T15:50:26.047Z,47.80
2019-03-24T15:52:57.352Z,42.43
2019-03-24T15:55:52.566Z,47.77
2019-03-24T15:58:23.853Z,57.07
2019-03-24T16:00:55.169Z,45.43
2019-03-24T16:03:36.493Z,41.03
2019-03-24T16:06:07.706Z,47.63
2019-03-24T16:08:39.058Z,42.27
2019-03-24T16:11:10.425Z,50.33
2019-03-24T16:13:41.732Z,42.17
2019-03-24T16:16:13.247Z,36.10
2019-03-24T16:18:44.642Z,40.57
2019-03-24T16:21:26.949Z,40.30
2019-03-24T16:23:51.294Z,39.57
2019-03-24T16:26:25.360Z,54.67
2019-03-24T16:28:56.641Z,40.90
2019-03-24T16:31:28.015Z,42.13
2019-03-24T16:33:59.422Z,42.07
2019-03-24T16:36:30.791Z,40.00
2019-03-24T16:39:03.778Z,42.03
2019-03-24T16:41:35.424Z,38.47
2019-03-24T16:44:06.852Z,37.37
2019-03-24T16:46:38.195Z,40.23
2019-03-24T16:49:09.603Z,40.03
2019-03-24T16:51:41.719Z,37.97
2019-03-24T16:54:13.111Z,40.50
2019-03-24T16:56:45.489Z,42.63
2019-03-24T16:59:16.809Z,39.10
2019-03-24T17:01:48.135Z,39.43
2019-03-24T17:04:19.525Z,36.67
2019-03-24T17:06:50.894Z,37.73
2019-03-24T17:09:22.137Z,36.93
2019-03-24T17:11:53.551Z,40.60
2019-03-24T17:14:24.920Z,41.13
2019-03-24T17:16:56.415Z,38.27
2019-03-24T17:19:27.688Z,39.37
2019-03-24T17:21:58.938Z,40.10
2019-03-24T17:24:30.372Z,45.33
2019-03-24T17:27:01.747Z,43.47
2019-03-24T17:29:33.151Z,52.97
2019-03-24T17:32:04.494Z,52.87
2019-03-24T17:34:35.811Z,60.20
2019-03-24T17:37:07.066Z,53.17
2019-03-24T17:39:38.511Z,50.73
2019-03-24T17:42:09.834Z,49.70
2019-03-24T17:44:41.367Z,56.83
2019-03-24T17:47:12.712Z,56.17
2019-03-24T17:49:44.082Z,54.03
2019-03-24T17:52:15.742Z,66.90
2019-03-24T17:54:47.635Z,56.90
2019-03-24T17:57:19.098Z,58.87
2019-03-24T17:59:50.455Z,59.87
2019-03-24T18:02:21.913Z,60.23
2019-03-24T18:04:53.477Z,56.90
2019-03-24T18:07:24.866Z,116.57
2019-03-24T18:09:56.471Z,140.47
2019-03-24T18:12:27.937Z,77.30
2019-03-24T18:14:59.506Z,60.37
2019-03-24T18:17:30.867Z,59.43
2019-03-24T18:20:02.590Z,60.13
2019-03-24T18:22:34.355Z,60.27
2019-03-24T18:25:06.862Z,57.77
2019-03-24T18:27:38.215Z,59.90
2019-03-24T18:30:12.664Z,60.53
2019-03-24T18:32:44.040Z,64.27
2019-03-24T18:35:15.579Z,87.77
2019-03-24T18:37:46.943Z,91.80
2019-03-24T18:40:18.981Z,78.27
2019-03-24T18:42:50.249Z,84.03
2019-03-24T18:45:21.873Z,61.17
2019-03-24T18:47:53.844Z,60.33
2019-03-24T18:50:25.358Z,56.23
2019-03-24T18:52:56.728Z,62.17
2019-03-24T18:55:28.146Z,58.97
2019-03-24T18:57:59.683Z,59.80
2019-03-24T19:00:31.162Z,58.63
2019-03-24T19:03:02.709Z,54.90
2019-03-24T19:05:35.209Z,58.83
2019-03-24T19:08:06.883Z,54.63
2019-03-24T19:10:38.330Z,57.80
2019-03-24T19:13:10.232Z,56.03
2019-03-24T19:15:41.820Z,55.53
2019-03-24T19:18:15.492Z,51.40
2019-03-24T19:20:46.823Z,55.10
2019-03-24T19:23:18.244Z,57.87
2019-03-24T19:25:49.503Z,55.10
2019-03-24T19:28:20.920Z,57.97
2019-03-24T19:30:52.170Z,56.97
2019-03-24T19:33:23.473Z,56.73
2019-03-24T19:35:54.721Z,55.30
2019-03-24T19:38:26.672Z,57.23
2019-03-24T19:40:57.825Z,60.27
2019-03-24T19:43:29.165Z,56.80
2019-03-24T19:46:00.512Z,61.10
2019-03-24T19:48:32.218Z,59.23
2019-03-24T19:51:03.465Z,64.17
2019-03-24T19:53:34.747Z,59.27
2019-03-24T19:56:06.436Z,60.23
2019-03-24T19:58:37.731Z,65.03
2019-03-24T20:01:08.969Z,61.53
2019-03-24T20:03:40.243Z,63.47
2019-03-24T20:06:11.542Z,57.73
2019-03-24T20:08:42.785Z,65.20
2019-03-24T20:11:14.064Z,69.60
2019-03-24T20:13:45.321Z,65.07
2019-03-24T20:16:16.706Z,60.20
2019-03-24T20:18:48.030Z,62.57
2019-03-24T20:21:19.195Z,64.20
2019-03-24T20:23:50.522Z,62.00
2019-03-24T20:26:21.737Z,65.37
2019-03-24T20:28:53.767Z,68.00
2019-03-24T20:31:25.029Z,64.37
2019-03-24T20:33:56.349Z,67.00
2019-03-24T20:36:27.622Z,66.53
2019-03-24T20:38:58.977Z,69.53
2019-03-24T20:41:30.254Z,65.53
2019-03-24T20:44:01.480Z,69.80
2019-03-24T20:46:32.827Z,65.07
2019-03-24T20:49:04.191Z,69.07
2019-03-24T20:51:35.488Z,61.37
2019-03-24T20:54:06.849Z,68.70
2019-03-24T20:56:38.176Z,66.90
2019-03-24T20:59:09.405Z,66.37
2019-03-24T21:01:40.565Z,67.57
2019-03-24T21:04:11.861Z,68.83
2019-03-24T21:06:43.075Z,70.10
2019-03-24T21:09:14.678Z,66.20
2019-03-24T21:11:45.895Z,70.87
2019-03-24T21:14:17.176Z,75.27
2019-03-24T21:16:48.440Z,64.50
2019-03-24T21:19:19.761Z,65.33
2019-03-24T21:21:51.499Z,67.53
2019-03-24T21:24:22.746Z,69.47
2019-03-24T21:26:54.000Z,71.83
2019-03-24T21:29:25.375Z,73.17
2019-03-24T21:31:56.498Z,71.87
2019-03-24T21:34:27.650Z,72.90
2019-03-24T21:36:59.006Z,70.67
2019-03-24T21:39:30.290Z,67.63
2019-03-24T21:42:01.659Z,69.40
2019-03-24T21:44:32.827Z,67.67
2019-03-24T21:47:04.112Z,63.67
2019-03-24T21:49:35.376Z,67.53
2019-03-24T21:52:06.812Z,66.33
2019-03-24T21:54:38.014Z,66.30
2019-03-24T21:57:09.259Z,65.00
2019-03-24T21:59:40.526Z,68.30
2019-03-24T22:02:11.884Z,71.83
2019-03-24T22:04:43.277Z,61.07
2019-03-24T22:07:14.468Z,64.90
2019-03-24T22:09:45.744Z,72.57
2019-03-24T22:12:17.117Z,69.70
2019-03-24T22:14:48.400Z,73.60
2019-03-24T22:17:19.718Z,83.33
2019-03-24T22:19:50.955Z,75.83
2019-03-24T22:22:22.188Z,75.53
2019-03-24T22:24:53.518Z,78.63
2019-03-24T22:27:24.803Z,76.77
2019-03-24T22:29:55.933Z,73.43
2019-03-24T22:32:27.191Z,75.20
2019-03-24T22:34:58.475Z,75.77
2019-03-24T22:37:29.611Z,80.17
2019-03-24T22:40:00.783Z,78.00
2019-03-24T22:42:31.997Z,82.40
2019-03-24T22:45:03.297Z,76.80
2019-03-24T22:47:34.509Z,78.53
2019-03-24T22:50:06.375Z,77.60
2019-03-24T22:52:37.711Z,80.20
2019-03-24T22:55:09.754Z,74.77
2019-03-24T22:57:40.961Z,76.17
2019-03-24T23:00:32.995Z,74.50
2019-03-24T23:03:04.223Z,74.93
2019-03-24T23:05:35.507Z,78.27
2019-03-24T23:08:06.797Z,73.93
2019-03-24T23:10:38.099Z,77.17
2019-03-24T23:13:09.369Z,71.20
2019-03-24T23:15:40.562Z,74.77
2019-03-24T23:18:11.874Z,79.90
2019-03-24T23:20:43.178Z,74.43
2019-03-24T23:23:14.395Z,72.57
2019-03-24T23:25:45.650Z,72.67
2019-03-24T23:28:16.793Z,71.10
2019-03-24T23:30:48.073Z,71.60
2019-03-24T23:33:19.371Z,70.97
2019-03-24T23:35:50.580Z,70.83
2019-03-24T23:38:21.798Z,74.43
2019-03-24T23:40:53.244Z,72.40
2019-03-24T23:43:24.519Z,74.13
2019-03-24T23:45:55.788Z,75.87
2019-03-24T23:48:27.023Z,75.93
2019-03-24T23:50:58.138Z,83.50
2019-03-24T23:53:29.353Z,79.27
2019-03-24T23:56:00.627Z,85.77
2019-03-24T23:58:40.837Z,73.50
